sensor_id;sensor_type;location;lat;lon;timestamp;pressure;altitude;pressure_sealevel;temperature;humidity
42945;BME280;28584;42.636;23.294;2023-04-09T00:01:05;159700.81;;;4.30;100.00
42945;BME280;28584;42.636;23.294;2023-04-09T00:03:31;159694.19;;;4.28;100.00
42945;BME280;28584;42.636;23.294;2023-04-09T00:05:57;159688.84;;;4.26;100.00
42945;BME280;28584;42.636;23.294;2023-04-09T00:08:22;159682.19;;;4.23;100.00
42945;BME280;28584;42.636;23.294;2023-04-09T00:10:48;159666.22;;;4.17;100.00
42945;BME280;28584;42.636;23.294;2023-04-09T00:13:14;159684.84;;;4.24;100.00
42945;BME280;28584;42.636;23.294;2023-04-09T00:15:40;159679.56;;;4.22;100.00
42945;BME280;28584;42.636;23.294;2023-04-09T00:18:05;159695.53;;;4.28;100.00
42945;BME280;28584;42.636;23.294;2023-04-09T00:20:30;159708.78;;;4.33;100.00
42945;BME280;28584;42.636;23.294;2023-04-09T00:22:56;159722.06;;;4.38;100.00
42945;BME280;28584;42.636;23.294;2023-04-09T00:25:22;159688.84;;;4.26;100.00
42945;BME280;28584;42.636;23.294;2023-04-09T00:27:47;159706.16;;;4.32;100.00
42945;BME280;28584;42.636;23.294;2023-04-09T00:30:13;159711.44;;;4.34;100.00
42945;BME280;28584;42.636;23.294;2023-04-09T00:32:38;159710.13;;;4.34;100.00
42945;BME280;28584;42.636;23.294;2023-04-09T00:35:04;159706.16;;;4.32;100.00
42945;BME280;28584;42.636;23.294;2023-04-09T00:37:29;159682.19;;;4.23;100.00
42945;BME280;28584;42.636;23.294;2023-04-09T00:39:54;159700.81;;;4.30;100.00
42945;BME280;28584;42.636;23.294;2023-04-09T00:42:20;159714.13;;;4.35;100.00
42945;BME280;28584;42.636;23.294;2023-04-09T00:44:45;159727.41;;;4.40;100.00
42945;BME280;28584;42.636;23.294;2023-04-09T00:47:11;159735.38;;;4.43;100.00
42945;BME280;28584;42.636;23.294;2023-04-09T00:49:36;159724.75;;;4.39;100.00
42945;BME280;28584;42.636;23.294;2023-04-09T00:52:02;159761.97;;;4.53;100.00
42945;BME280;28584;42.636;23.294;2023-04-09T00:54:27;159769.97;;;4.56;100.00
42945;BME280;28584;42.636;23.294;2023-04-09T00:56:53;159768.63;;;4.56;100.00
42945;BME280;28584;42.636;23.294;2023-04-09T00:59:20;159775.25;;;4.58;100.00
42945;BME280;28584;42.636;23.294;2023-04-09T01:01:46;159797.84;;;4.67;100.00
42945;BME280;28584;42.636;23.294;2023-04-09T01:04:12;159815.19;;;4.73;100.00
42945;BME280;28584;42.636;23.294;2023-04-09T01:09:13;159801.84;;;4.68;100.00
42945;BME280;28584;42.636;23.294;2023-04-09T01:12:28;159767.25;;;4.55;100.00
42945;BME280;28584;42.636;23.294;2023-04-09T01:14:36;159780.59;;;4.60;100.00
42945;BME280;28584;42.636;23.294;2023-04-09T01:17:14;159793.88;;;4.65;100.00
42945;BME280;28584;42.636;23.294;2023-04-09T01:20:15;159812.47;;;4.72;100.00
42945;BME280;28584;42.636;23.294;2023-04-09T01:28:24;159780.59;;;4.60;100.00
42945;BME280;28584;42.636;23.294;2023-04-09T01:31:10;159776.59;;;4.59;100.00
42945;BME280;28584;42.636;23.294;2023-04-09T01:33:38;159718.13;;;4.37;100.00
42945;BME280;28584;42.636;23.294;2023-04-09T01:36:05;159698.16;;;4.29;100.00
42945;BME280;28584;42.636;23.294;2023-04-09T01:38:31;159645.00;;;4.09;100.00
42945;BME280;28584;42.636;23.294;2023-04-09T01:40:58;159629.03;;;4.03;100.00
42945;BME280;28584;42.636;23.294;2023-04-09T01:43:26;159668.94;;;4.18;100.00
42945;BME280;28584;42.636;23.294;2023-04-09T01:45:52;159627.72;;;4.03;100.00
42945;BME280;28584;42.636;23.294;2023-04-09T01:48:19;159634.38;;;4.05;100.00
42945;BME280;28584;42.636;23.294;2023-04-09T01:50:45;159654.31;;;4.13;100.00
42945;BME280;28584;42.636;23.294;2023-04-09T01:53:11;159647.63;;;4.10;100.00
42945;BME280;28584;42.636;23.294;2023-04-09T01:55:37;159643.66;;;4.09;100.00
42945;BME280;28584;42.636;23.294;2023-04-09T01:58:02;159652.97;;;4.12;100.00
42945;BME280;28584;42.636;23.294;2023-04-09T02:00:37;159639.69;;;4.07;100.00
42945;BME280;28584;42.636;23.294;2023-04-09T02:03:10;159647.63;;;4.10;100.00
42945;BME280;28584;42.636;23.294;2023-04-09T02:05:43;159599.81;;;3.92;100.00
42945;BME280;28584;42.636;23.294;2023-04-09T02:08:12;159591.81;;;3.89;100.00
42945;BME280;28584;42.636;23.294;2023-04-09T02:10:43;159525.41;;;3.64;100.00
42945;BME280;28584;42.636;23.294;2023-04-09T02:13:18;159541.34;;;3.70;100.00
42945;BME280;28584;42.636;23.294;2023-04-09T02:15:44;159517.44;;;3.61;100.00
42945;BME280;28584;42.636;23.294;2023-04-09T02:18:24;159538.72;;;3.69;100.00
42945;BME280;28584;42.636;23.294;2023-04-09T02:20:51;159524.06;;;3.64;100.00
42945;BME280;28584;42.636;23.294;2023-04-09T02:23:16;159520.06;;;3.62;100.00
42945;BME280;28584;42.636;23.294;2023-04-09T02:25:42;159498.84;;;3.54;100.00
42945;BME280;28584;42.636;23.294;2023-04-09T02:28:08;159501.47;;;3.55;100.00
42945;BME280;28584;42.636;23.294;2023-04-09T02:30:33;159509.44;;;3.58;100.00
42945;BME280;28584;42.636;23.294;2023-04-09T02:32:59;159512.16;;;3.59;100.00
42945;BME280;28584;42.636;23.294;2023-04-09T02:35:24;159501.47;;;3.55;100.00
42945;BME280;28584;42.636;23.294;2023-04-09T02:37:50;159482.88;;;3.48;100.00
42945;BME280;28584;42.636;23.294;2023-04-09T02:40:15;159472.25;;;3.44;100.00
42945;BME280;28584;42.636;23.294;2023-04-09T02:42:40;159459.00;;;3.39;100.00
42945;BME280;28584;42.636;23.294;2023-04-09T02:45:06;159441.69;;;3.33;100.00
42945;BME280;28584;42.636;23.294;2023-04-09T02:47:32;159424.44;;;3.26;100.00
42945;BME280;28584;42.636;23.294;2023-04-09T02:49:57;159387.28;;;3.12;100.00
42945;BME280;28584;42.636;23.294;2023-04-09T02:52:22;159400.53;;;3.17;100.00
42945;BME280;28584;42.636;23.294;2023-04-09T02:54:49;159330.16;;;2.90;100.00
42945;BME280;28584;42.636;23.294;2023-04-09T02:57:14;159348.75;;;2.97;100.00
42945;BME280;28584;42.636;23.294;2023-04-09T02:59:40;159320.88;;;2.87;100.00
42945;BME280;28584;42.636;23.294;2023-04-09T03:02:05;159314.28;;;2.84;100.00
42945;BME280;28584;42.636;23.294;2023-04-09T03:04:31;159339.47;;;2.94;100.00
42945;BME280;28584;42.636;23.294;2023-04-09T03:06:56;159328.88;;;2.90;100.00
42945;BME280;28584;42.636;23.294;2023-04-09T03:09:21;159328.88;;;2.90;100.00
42945;BME280;28584;42.636;23.294;2023-04-09T03:11:47;159307.59;;;2.82;100.00
42945;BME280;28584;42.636;23.294;2023-04-09T03:14:12;159304.94;;;2.81;100.00
42945;BME280;28584;42.636;23.294;2023-04-09T03:16:37;159299.66;;;2.79;100.00
42945;BME280;28584;42.636;23.294;2023-04-09T03:19:03;159312.91;;;2.84;100.00
42945;BME280;28584;42.636;23.294;2023-04-09T03:21:28;159311.56;;;2.83;100.00
42945;BME280;28584;42.636;23.294;2023-04-09T03:23:53;159315.56;;;2.85;100.00
42945;BME280;28584;42.636;23.294;2023-04-09T03:26:19;159319.56;;;2.86;100.00
42945;BME280;28584;42.636;23.294;2023-04-09T03:28:44;159275.75;;;2.70;100.00
42945;BME280;28584;42.636;23.294;2023-04-09T03:31:09;159273.13;;;2.69;100.00
42945;BME280;28584;42.636;23.294;2023-04-09T03:33:35;159254.53;;;2.62;100.00
42945;BME280;28584;42.636;23.294;2023-04-09T03:36:00;159249.19;;;2.60;100.00
42945;BME280;28584;42.636;23.294;2023-04-09T03:38:26;159201.44;;;2.42;100.00
42945;BME280;28584;42.636;23.294;2023-04-09T03:40:51;159194.81;;;2.39;100.00
42945;BME280;28584;42.636;23.294;2023-04-09T03:43:16;159198.78;;;2.41;100.00
42945;BME280;28584;42.636;23.294;2023-04-09T03:45:42;159185.50;;;2.36;100.00
42945;BME280;28584;42.636;23.294;2023-04-09T03:48:07;159177.53;;;2.33;100.00
42945;BME280;28584;42.636;23.294;2023-04-09T03:50:41;159148.34;;;2.22;100.00
42945;BME280;28584;42.636;23.294;2023-04-09T03:53:07;159153.66;;;2.24;100.00
42945;BME280;28584;42.636;23.294;2023-04-09T03:55:32;159189.47;;;2.37;100.00
42945;BME280;28584;42.636;23.294;2023-04-09T03:57:57;159194.81;;;2.39;100.00
42945;BME280;28584;42.636;23.294;2023-04-09T04:00:23;159198.78;;;2.41;100.00
42945;BME280;28584;42.636;23.294;2023-04-09T04:02:48;159192.13;;;2.38;100.00
42945;BME280;28584;42.636;23.294;2023-04-09T04:05:14;159196.09;;;2.40;100.00
42945;BME280;28584;42.636;23.294;2023-04-09T04:07:39;159214.69;;;2.47;100.00
42945;BME280;28584;42.636;23.294;2023-04-09T04:10:08;159197.44;;;2.40;100.00
42945;BME280;28584;42.636;23.294;2023-04-09T04:12:34;159194.81;;;2.39;100.00
42945;BME280;28584;42.636;23.294;2023-04-09T04:15:00;159217.38;;;2.48;100.00
42945;BME280;28584;42.636;23.294;2023-04-09T04:17:25;159198.78;;;2.41;100.00
42945;BME280;28584;42.636;23.294;2023-04-09T04:19:50;159245.22;;;2.58;100.00
42945;BME280;28584;42.636;23.294;2023-04-09T04:22:16;159283.72;;;2.73;100.00
42945;BME280;28584;42.636;23.294;2023-04-09T04:24:41;159322.19;;;2.87;100.00
42945;BME280;28584;42.636;23.294;2023-04-09T04:27:06;159336.84;;;2.93;100.00
42945;BME280;28584;42.636;23.294;2023-04-09T04:29:32;159374.00;;;3.07;100.00
42945;BME280;28584;42.636;23.294;2023-04-09T04:31:57;159413.84;;;3.22;100.00
42945;BME280;28584;42.636;23.294;2023-04-09T04:34:23;159445.69;;;3.34;100.00
42945;BME280;28584;42.636;23.294;2023-04-09T04:36:48;159485.56;;;3.49;100.00
42945;BME280;28584;42.636;23.294;2023-04-09T04:39:14;159514.78;;;3.60;100.00
42945;BME280;28584;42.636;23.294;2023-04-09T04:41:39;159532.03;;;3.67;100.00
42945;BME280;28584;42.636;23.294;2023-04-09T04:44:05;159565.25;;;3.79;100.00
42945;BME280;28584;42.636;23.294;2023-04-09T04:46:30;159618.41;;;3.99;100.00
42945;BME280;28584;42.636;23.294;2023-04-09T04:48:55;159680.84;;;4.23;100.00
42945;BME280;28584;42.636;23.294;2023-04-09T04:51:21;159740.66;;;4.45;100.00
42945;BME280;28584;42.636;23.294;2023-04-09T04:53:46;159809.84;;;4.71;100.00
42945;BME280;28584;42.636;23.294;2023-04-09T04:56:15;159865.69;;;4.92;100.00
42945;BME280;28584;42.636;23.294;2023-04-09T04:58:41;159928.19;;;5.16;100.00
42945;BME280;28584;42.636;23.294;2023-04-09T05:01:06;159980.09;;;5.35;100.00
42945;BME280;28584;42.636;23.294;2023-04-09T05:03:32;160033.28;;;5.55;100.00
42945;BME280;28584;42.636;23.294;2023-04-09T05:05:57;160102.56;;;5.82;100.00
42945;BME280;28584;42.636;23.294;2023-04-09T05:08:22;160158.47;;;6.03;100.00
42945;BME280;28584;42.636;23.294;2023-04-09T05:10:48;160177.09;;;6.10;100.00
42945;BME280;28584;42.636;23.294;2023-04-09T05:13:13;160214.38;;;6.24;100.00
42945;BME280;28584;42.636;23.294;2023-04-09T05:15:39;160223.66;;;6.27;100.00
42945;BME280;28584;42.636;23.294;2023-04-09T05:18:05;160243.66;;;6.35;100.00
42945;BME280;28584;42.636;23.294;2023-04-09T05:20:32;160234.34;;;6.31;100.00
42945;BME280;28584;42.636;23.294;2023-04-09T05:22:57;160225.00;;;6.28;100.00
42945;BME280;28584;42.636;23.294;2023-04-09T05:25:22;160257.00;;;6.40;100.00
42945;BME280;28584;42.636;23.294;2023-04-09T05:27:48;160233.00;;;6.31;100.00
42945;BME280;28584;42.636;23.294;2023-04-09T05:30:13;160201.03;;;6.19;100.00
42945;BME280;28584;42.636;23.294;2023-04-09T05:32:39;160206.38;;;6.21;100.00
42945;BME280;28584;42.636;23.294;2023-04-09T05:35:05;160203.72;;;6.20;100.00
42945;BME280;28584;42.636;23.294;2023-04-09T05:37:30;160214.38;;;6.24;100.00
42945;BME280;28584;42.636;23.294;2023-04-09T05:39:56;160229.00;;;6.29;100.00
42945;BME280;28584;42.636;23.294;2023-04-09T05:42:21;160271.63;;;6.45;100.00
42945;BME280;28584;42.636;23.294;2023-04-09T05:44:46;160288.94;;;6.52;100.00
42945;BME280;28584;42.636;23.294;2023-04-09T05:47:12;160280.94;;;6.49;100.00
42945;BME280;28584;42.636;23.294;2023-04-09T05:49:37;160302.22;;;6.57;100.00
42945;BME280;28584;42.636;23.294;2023-04-09T05:52:03;160330.22;;;6.67;100.00
42945;BME280;28584;42.636;23.294;2023-04-09T05:54:28;160424.78;;;7.03;100.00
42945;BME280;28584;42.636;23.294;2023-04-09T05:56:53;160460.75;;;7.16;100.00
42945;BME280;28584;42.636;23.294;2023-04-09T05:59:19;160478.09;;;7.23;100.00
42945;BME280;28584;42.636;23.294;2023-04-09T06:01:44;160534.06;;;7.44;100.00
42945;BME280;28584;42.636;23.294;2023-04-09T06:04:10;160563.38;;;7.55;100.00
42945;BME280;28584;42.636;23.294;2023-04-09T06:06:37;160564.66;;;7.55;100.00
42945;BME280;28584;42.636;23.294;2023-04-09T06:09:03;160538.06;;;7.45;100.00
42945;BME280;28584;42.636;23.294;2023-04-09T06:11:30;160556.72;;;7.52;100.00
42945;BME280;28584;42.636;23.294;2023-04-09T06:13:55;160628.66;;;7.79;100.00
42945;BME280;28584;42.636;23.294;2023-04-09T06:16:21;160735.34;;;8.19;100.00
42945;BME280;28584;42.636;23.294;2023-04-09T06:18:47;160862.06;;;8.67;100.00
42945;BME280;28584;42.636;23.294;2023-04-09T06:21:14;160907.44;;;8.84;100.00
42945;BME280;28584;42.636;23.294;2023-04-09T06:23:39;160894.13;;;8.79;100.00
42945;BME280;28584;42.636;23.294;2023-04-09T06:26:05;160838.09;;;8.58;100.00
42945;BME280;28584;42.636;23.294;2023-04-09T06:28:31;160820.72;;;8.52;100.00
42945;BME280;28584;42.636;23.294;2023-04-09T06:30:57;160915.44;;;8.87;100.00
42945;BME280;28584;42.636;23.294;2023-04-09T06:33:23;160936.78;;;8.95;100.00
42945;BME280;28584;42.636;23.294;2023-04-09T06:35:49;160994.19;;;9.17;100.00
42945;BME280;28584;42.636;23.294;2023-04-09T06:38:15;161066.25;;;9.44;100.00
42945;BME280;28584;42.636;23.294;2023-04-09T06:40:41;161075.56;;;9.47;100.00
42945;BME280;28584;42.636;23.294;2023-04-09T06:43:06;161167.72;;;9.82;100.00
42945;BME280;28584;42.636;23.294;2023-04-09T06:45:32;161275.91;;;10.22;100.00
42945;BME280;28584;42.636;23.294;2023-04-09T06:47:59;161358.75;;;10.53;100.00
42945;BME280;28584;42.636;23.294;2023-04-09T06:50:25;161360.09;;;10.54;100.00
42945;BME280;28584;42.636;23.294;2023-04-09T06:52:51;161315.97;;;10.37;100.00
42945;BME280;28584;42.636;23.294;2023-04-09T06:55:16;161366.75;;;10.56;100.00
42945;BME280;28584;42.636;23.294;2023-04-09T06:57:42;161334.66;;;10.44;100.00
42945;BME280;28584;42.636;23.294;2023-04-09T07:00:08;161390.78;;;10.65;100.00
42945;BME280;28584;42.636;23.294;2023-04-09T07:02:35;161454.91;;;10.89;100.00
42945;BME280;28584;42.636;23.294;2023-04-09T07:05:00;161553.84;;;11.27;96.68
42945;BME280;28584;42.636;23.294;2023-04-09T07:07:27;161651.47;;;11.63;90.87
42945;BME280;28584;42.636;23.294;2023-04-09T07:09:52;161577.91;;;11.36;76.08
42945;BME280;28584;42.636;23.294;2023-04-09T07:12:31;161615.34;;;11.50;74.79
42945;BME280;28584;42.636;23.294;2023-04-09T07:14:58;161700.94;;;11.82;71.08
42945;BME280;28584;42.636;23.294;2023-04-09T07:17:24;161719.66;;;11.89;70.59
42945;BME280;28584;42.636;23.294;2023-04-09T07:19:49;161794.56;;;12.17;70.10
42945;BME280;28584;42.636;23.294;2023-04-09T07:22:16;161823.97;;;12.28;68.77
42945;BME280;28584;42.636;23.294;2023-04-09T07:24:42;161834.69;;;12.32;68.95
42945;BME280;28584;42.636;23.294;2023-04-09T07:27:07;161919.00;;;12.63;67.81
42945;BME280;28584;42.636;23.294;2023-04-09T07:29:33;161910.94;;;12.60;65.60
42945;BME280;28584;42.636;23.294;2023-04-09T07:31:59;161775.84;;;12.10;65.83
42945;BME280;28584;42.636;23.294;2023-04-09T07:34:26;161814.66;;;12.24;66.70
42945;BME280;28584;42.636;23.294;2023-04-09T07:36:52;161913.63;;;12.61;65.60
42945;BME280;28584;42.636;23.294;2023-04-09T07:39:18;161822.69;;;12.27;64.37
42945;BME280;28584;42.636;23.294;2023-04-09T07:41:43;161775.84;;;12.10;65.55
42945;BME280;28584;42.636;23.294;2023-04-09T07:44:08;161675.56;;;11.72;66.93
42945;BME280;28584;42.636;23.294;2023-04-09T07:46:34;161655.50;;;11.65;69.54
42945;BME280;28584;42.636;23.294;2023-04-09T07:48:59;161759.78;;;12.04;74.16
42945;BME280;28584;42.636;23.294;2023-04-09T07:51:25;161783.88;;;12.13;73.42
42945;BME280;28584;42.636;23.294;2023-04-09T07:53:50;161730.38;;;11.93;71.36
42945;BME280;28584;42.636;23.294;2023-04-09T07:56:15;161599.28;;;11.44;78.31
42945;BME280;28584;42.636;23.294;2023-04-09T07:58:41;161580.56;;;11.37;82.54
42945;BME280;28584;42.636;23.294;2023-04-09T08:01:07;161569.88;;;11.33;83.30
42945;BME280;28584;42.636;23.294;2023-04-09T08:03:32;161640.72;;;11.59;82.59
42945;BME280;28584;42.636;23.294;2023-04-09T08:06:00;161476.34;;;10.97;84.36
42945;BME280;28584;42.636;23.294;2023-04-09T08:08:25;161559.19;;;11.29;86.95
42945;BME280;28584;42.636;23.294;2023-04-09T08:10:50;161548.47;;;11.24;81.76
42945;BME280;28584;42.636;23.294;2023-04-09T08:13:16;161474.97;;;10.97;86.87
42945;BME280;28584;42.636;23.294;2023-04-09T08:15:41;161479.00;;;10.98;89.63
42945;BME280;28584;42.636;23.294;2023-04-09T08:18:07;161441.59;;;10.84;87.71
42945;BME280;28584;42.636;23.294;2023-04-09T08:20:32;161479.00;;;10.98;96.84
42945;BME280;28584;42.636;23.294;2023-04-09T08:22:57;161575.22;;;11.35;92.24
42945;BME280;28584;42.636;23.294;2023-04-09T08:25:23;161650.13;;;11.63;82.32
42945;BME280;28584;42.636;23.294;2023-04-09T08:27:48;161612.63;;;11.49;81.55
42945;BME280;28584;42.636;23.294;2023-04-09T08:30:14;161727.72;;;11.92;83.16
42945;BME280;28584;42.636;23.294;2023-04-09T08:32:40;161696.94;;;11.80;77.78
42945;BME280;28584;42.636;23.294;2023-04-09T08:35:06;161675.56;;;11.72;79.30
42945;BME280;28584;42.636;23.294;2023-04-09T08:37:31;161604.66;;;11.46;75.90
42945;BME280;28584;42.636;23.294;2023-04-09T08:39:57;161524.44;;;11.15;79.20
42945;BME280;28584;42.636;23.294;2023-04-09T08:42:23;161577.91;;;11.36;87.87
42945;BME280;28584;42.636;23.294;2023-04-09T08:44:49;161461.63;;;10.92;93.24
42945;BME280;28584;42.636;23.294;2023-04-09T08:47:15;161358.75;;;10.53;94.68
42945;BME280;28584;42.636;23.294;2023-04-09T08:49:41;161436.22;;;10.82;95.83
42945;BME280;28584;42.636;23.294;2023-04-09T08:52:06;161353.38;;;10.51;98.30
42945;BME280;28584;42.636;23.294;2023-04-09T08:54:32;161269.25;;;10.20;100.00
42945;BME280;28584;42.636;23.294;2023-04-09T08:56:57;161259.88;;;10.16;100.00
42945;BME280;28584;42.636;23.294;2023-04-09T08:59:23;161369.41;;;10.57;100.00
42945;BME280;28584;42.636;23.294;2023-04-09T09:01:49;161438.91;;;10.83;96.17
42945;BME280;28584;42.636;23.294;2023-04-09T09:04:45;161389.47;;;10.65;97.49
42945;BME280;28584;42.636;23.294;2023-04-09T09:07:11;161364.09;;;10.55;97.83
42945;BME280;28584;42.636;23.294;2023-04-09T09:09:53;161453.63;;;10.89;94.73
42945;BME280;28584;42.636;23.294;2023-04-09T09:14:58;161414.84;;;10.74;90.33
42945;BME280;28584;42.636;23.294;2023-04-09T09:17:23;161438.91;;;10.83;95.28
42945;BME280;28584;42.636;23.294;2023-04-09T09:19:48;161460.28;;;10.91;92.74
42945;BME280;28584;42.636;23.294;2023-04-09T09:22:14;161396.16;;;10.67;91.70
42945;BME280;28584;42.636;23.294;2023-04-09T09:24:46;161388.13;;;10.64;94.44
42945;BME280;28584;42.636;23.294;2023-04-09T09:27:33;161468.31;;;10.94;90.96
42945;BME280;28584;42.636;23.294;2023-04-09T09:30:02;161503.06;;;11.07;90.40
42945;BME280;28584;42.636;23.294;2023-04-09T09:32:28;161545.81;;;11.23;86.93
42945;BME280;28584;42.636;23.294;2023-04-09T09:35:05;161579.22;;;11.36;85.08
42945;BME280;28584;42.636;23.294;2023-04-09T09:37:32;161639.38;;;11.59;82.03
42945;BME280;28584;42.636;23.294;2023-04-09T09:39:59;161573.91;;;11.34;80.94
42945;BME280;28584;42.636;23.294;2023-04-09T09:42:25;161535.13;;;11.19;79.65
42945;BME280;28584;42.636;23.294;2023-04-09T09:44:53;161406.81;;;10.71;83.39
42945;BME280;28584;42.636;23.294;2023-04-09T09:47:20;161476.34;;;10.97;87.55
42945;BME280;28584;42.636;23.294;2023-04-09T09:49:49;161532.47;;;11.18;83.34
42945;BME280;28584;42.636;23.294;2023-04-09T09:52:24;161503.06;;;11.07;81.15
42945;BME280;28584;42.636;23.294;2023-04-09T09:54:51;161601.94;;;11.45;80.53
42945;BME280;28584;42.636;23.294;2023-04-09T09:57:19;161591.25;;;11.41;74.87
42945;BME280;28584;42.636;23.294;2023-04-09T09:59:54;161519.06;;;11.13;78.06
42945;BME280;28584;42.636;23.294;2023-04-09T10:02:22;161437.56;;;10.83;78.31
42945;BME280;28584;42.636;23.294;2023-04-09T10:04:49;161561.84;;;11.30;77.83
42945;BME280;28584;42.636;23.294;2023-04-09T10:07:18;161593.91;;;11.42;72.50
42945;BME280;28584;42.636;23.294;2023-04-09T10:09:48;161706.31;;;11.84;72.29
42945;BME280;28584;42.636;23.294;2023-04-09T10:12:13;161646.16;;;11.61;70.82
42945;BME280;28584;42.636;23.294;2023-04-09T10:14:39;161618.00;;;11.51;71.52
42945;BME280;28584;42.636;23.294;2023-04-09T10:17:06;161640.72;;;11.59;73.29
42945;BME280;28584;42.636;23.294;2023-04-09T10:19:36;161679.56;;;11.74;69.13
42945;BME280;28584;42.636;23.294;2023-04-09T10:22:10;161667.53;;;11.69;66.58
42945;BME280;28584;42.636;23.294;2023-04-09T10:24:38;161769.16;;;12.07;66.72
42945;BME280;28584;42.636;23.294;2023-04-09T10:27:13;161754.47;;;12.02;63.76
42945;BME280;28584;42.636;23.294;2023-04-09T10:29:44;161754.47;;;12.02;62.71
42945;BME280;28584;42.636;23.294;2023-04-09T10:32:10;161757.13;;;12.03;63.91
42945;BME280;28584;42.636;23.294;2023-04-09T10:34:40;161703.63;;;11.83;62.70
42945;BME280;28584;42.636;23.294;2023-04-09T10:37:13;161785.22;;;12.13;59.63
42945;BME280;28584;42.636;23.294;2023-04-09T10:39:43;161862.81;;;12.42;59.61
42945;BME280;28584;42.636;23.294;2023-04-09T10:42:14;161850.75;;;12.38;57.66
42945;BME280;28584;42.636;23.294;2023-04-09T10:44:40;161832.03;;;12.31;59.03
42945;BME280;28584;42.636;23.294;2023-04-09T10:47:07;161841.41;;;12.34;57.87
42945;BME280;28584;42.636;23.294;2023-04-09T10:49:40;161845.44;;;12.36;56.80
42945;BME280;28584;42.636;23.294;2023-04-09T10:52:10;161862.81;;;12.42;56.98
42945;BME280;28584;42.636;23.294;2023-04-09T10:54:44;161914.97;;;12.62;57.15
42945;BME280;28584;42.636;23.294;2023-04-09T10:57:16;162038.13;;;13.08;55.76
42945;BME280;28584;42.636;23.294;2023-04-09T10:59:53;162067.63;;;13.19;55.01
42945;BME280;28584;42.636;23.294;2023-04-09T11:05:31;161976.53;;;12.85;54.81
42945;BME280;28584;42.636;23.294;2023-04-09T11:08:11;161896.25;;;12.55;54.80
42945;BME280;28584;42.636;23.294;2023-04-09T11:10:38;161870.81;;;12.45;55.47
42945;BME280;28584;42.636;23.294;2023-04-09T11:13:05;162011.31;;;12.98;55.37
42945;BME280;28584;42.636;23.294;2023-04-09T11:15:33;162131.81;;;13.43;54.46
42945;BME280;28584;42.636;23.294;2023-04-09T11:17:59;162130.53;;;13.42;53.42
42945;BME280;28584;42.636;23.294;2023-04-09T11:20:26;162180.06;;;13.61;53.31
42945;BME280;28584;42.636;23.294;2023-04-09T11:22:54;162320.66;;;14.14;53.81
42945;BME280;28584;42.636;23.294;2023-04-09T11:25:21;162240.34;;;13.83;51.32
42945;BME280;28584;42.636;23.294;2023-04-09T11:27:47;162236.31;;;13.82;51.47
42945;BME280;28584;42.636;23.294;2023-04-09T11:30:13;162263.09;;;13.92;52.32
42945;BME280;28584;42.636;23.294;2023-04-09T11:32:39;162260.38;;;13.91;52.20
42945;BME280;28584;42.636;23.294;2023-04-09T11:35:10;162153.28;;;13.51;52.32
42945;BME280;28584;42.636;23.294;2023-04-09T11:37:37;162026.13;;;13.03;53.38
42945;BME280;28584;42.636;23.294;2023-04-09T11:40:03;162040.84;;;13.09;53.80
42945;BME280;28584;42.636;23.294;2023-04-09T11:42:33;162185.41;;;13.63;54.53
42945;BME280;28584;42.636;23.294;2023-04-09T11:44:59;162159.97;;;13.53;53.00
42945;BME280;28584;42.636;23.294;2023-04-09T11:47:25;162173.34;;;13.58;54.21
42945;BME280;28584;42.636;23.294;2023-04-09T11:49:51;162064.91;;;13.18;55.66
42945;BME280;28584;42.636;23.294;2023-04-09T11:52:17;162052.84;;;13.13;56.63
42945;BME280;28584;42.636;23.294;2023-04-09T11:54:49;161987.25;;;12.89;56.59
42945;BME280;28584;42.636;23.294;2023-04-09T11:57:15;161973.84;;;12.84;58.50
42945;BME280;28584;42.636;23.294;2023-04-09T11:59:40;161981.88;;;12.87;61.75
42945;BME280;28584;42.636;23.294;2023-04-09T12:02:06;161882.88;;;12.50;66.50
42945;BME280;28584;42.636;23.294;2023-04-09T12:04:32;161829.34;;;12.30;76.25
42945;BME280;28584;42.636;23.294;2023-04-09T12:06:57;161912.31;;;12.61;70.29
42945;BME280;28584;42.636;23.294;2023-04-09T12:09:23;162126.50;;;13.41;65.34
42945;BME280;28584;42.636;23.294;2023-04-09T12:11:48;162145.25;;;13.48;61.37
42945;BME280;28584;42.636;23.294;2023-04-09T12:14:16;162126.50;;;13.41;58.66
42945;BME280;28584;42.636;23.294;2023-04-09T12:16:41;162126.50;;;13.41;57.93
42945;BME280;28584;42.636;23.294;2023-04-09T12:19:11;162105.09;;;13.33;57.12
42945;BME280;28584;42.636;23.294;2023-04-09T12:21:52;162123.84;;;13.40;57.21
42945;BME280;28584;42.636;23.294;2023-04-09T12:24:21;162134.53;;;13.44;56.33
42945;BME280;28584;42.636;23.294;2023-04-09T12:26:47;162180.06;;;13.61;56.27
42945;BME280;28584;42.636;23.294;2023-04-09T12:29:13;162072.94;;;13.21;57.48
42945;BME280;28584;42.636;23.294;2023-04-09T12:31:40;162255.06;;;13.89;56.05
42945;BME280;28584;42.636;23.294;2023-04-09T12:34:05;162324.69;;;14.15;54.47
42945;BME280;28584;42.636;23.294;2023-04-09T12:36:30;162410.53;;;14.47;53.60
42945;BME280;28584;42.636;23.294;2023-04-09T12:38:56;162389.03;;;14.39;52.38
42945;BME280;28584;42.636;23.294;2023-04-09T12:41:21;162385.03;;;14.38;52.60
42945;BME280;28584;42.636;23.294;2023-04-09T12:43:47;162397.09;;;14.42;52.79
42945;BME280;28584;42.636;23.294;2023-04-09T12:46:13;162319.34;;;14.13;52.64
42945;BME280;28584;42.636;23.294;2023-04-09T12:48:38;162289.91;;;14.02;53.01
42945;BME280;28584;42.636;23.294;2023-04-09T12:51:04;162287.19;;;14.01;52.93
42945;BME280;28584;42.636;23.294;2023-04-09T12:53:31;162269.78;;;13.95;52.37